sensor_id;sensor_type;location;lat;lon;timestamp;P1;durP1;ratioP1;P2;durP2;ratioP2
6223;SDS011;3145;42.726;23.342;2023-06-14T00:02:21;8.73;;;6.03;;
6223;SDS011;3145;42.726;23.342;2023-06-14T00:04:48;12.40;;;6.37;;
6223;SDS011;3145;42.726;23.342;2023-06-14T00:07:16;7.23;;;6.60;;
6223;SDS011;3145;42.726;23.342;2023-06-14T00:09:43;7.33;;;6.53;;
6223;SDS011;3145;42.726;23.342;2023-06-14T00:12:10;7.80;;;5.57;;
6223;SDS011;3145;42.726;23.342;2023-06-14T00:14:37;7.00;;;6.30;;
6223;SDS011;3145;42.726;23.342;2023-06-14T00:17:05;13.67;;;6.73;;
6223;SDS011;3145;42.726;23.342;2023-06-14T00:19:32;6.33;;;5.73;;
6223;SDS011;3145;42.726;23.342;2023-06-14T00:22:00;7.53;;;5.53;;
6223;SDS011;3145;42.726;23.342;2023-06-14T00:24:28;7.67;;;6.00;;
6223;SDS011;3145;42.726;23.342;2023-06-14T00:26:55;9.20;;;5.50;;
6223;SDS011;3145;42.726;23.342;2023-06-14T00:29:21;7.13;;;6.43;;
6223;SDS011;3145;42.726;23.342;2023-06-14T00:31:48;5.57;;;5.07;;
6223;SDS011;3145;42.726;23.342;2023-06-14T00:34:16;6.97;;;5.50;;
6223;SDS011;3145;42.726;23.342;2023-06-14T00:36:43;7.93;;;5.60;;
6223;SDS011;3145;42.726;23.342;2023-06-14T00:39:09;5.63;;;5.13;;
6223;SDS011;3145;42.726;23.342;2023-06-14T00:41:37;6.03;;;4.73;;
6223;SDS011;3145;42.726;23.342;2023-06-14T00:44:04;5.60;;;5.10;;
6223;SDS011;3145;42.726;23.342;2023-06-14T00:46:31;6.37;;;5.33;;
6223;SDS011;3145;42.726;23.342;2023-06-14T00:48:58;5.50;;;4.90;;
6223;SDS011;3145;42.726;23.342;2023-06-14T00:51:28;5.47;;;5.07;;
6223;SDS011;3145;42.726;23.342;2023-06-14T00:53:54;9.77;;;5.47;;
6223;SDS011;3145;42.726;23.342;2023-06-14T00:56:21;6.27;;;5.67;;
6223;SDS011;3145;42.726;23.342;2023-06-14T00:58:48;5.60;;;5.20;;
6223;SDS011;3145;42.726;23.342;2023-06-14T01:01:16;7.80;;;6.27;;
6223;SDS011;3145;42.726;23.342;2023-06-14T01:03:42;5.03;;;4.63;;
6223;SDS011;3145;42.726;23.342;2023-06-14T01:06:12;6.00;;;5.60;;
6223;SDS011;3145;42.726;23.342;2023-06-14T01:08:55;8.00;;;6.07;;
6223;SDS011;3145;42.726;23.342;2023-06-14T01:11:31;6.73;;;6.00;;
6223;SDS011;3145;42.726;23.342;2023-06-14T01:13:59;7.50;;;5.97;;
6223;SDS011;3145;42.726;23.342;2023-06-14T01:16:28;12.10;;;5.57;;
6223;SDS011;3145;42.726;23.342;2023-06-14T01:18:57;8.23;;;6.00;;
6223;SDS011;3145;42.726;23.342;2023-06-14T01:21:24;5.87;;;5.37;;
6223;SDS011;3145;42.726;23.342;2023-06-14T01:23:54;6.83;;;6.33;;
6223;SDS011;3145;42.726;23.342;2023-06-14T01:26:21;6.83;;;6.10;;
6223;SDS011;3145;42.726;23.342;2023-06-14T01:28:49;5.87;;;5.37;;
6223;SDS011;3145;42.726;23.342;2023-06-14T01:31:18;6.30;;;5.77;;
6223;SDS011;3145;42.726;23.342;2023-06-14T01:33:46;6.77;;;6.13;;
6223;SDS011;3145;42.726;23.342;2023-06-14T01:36:15;11.40;;;5.73;;
6223;SDS011;3145;42.726;23.342;2023-06-14T01:38:42;6.47;;;5.87;;
6223;SDS011;3145;42.726;23.342;2023-06-14T01:41:12;6.27;;;5.57;;
6223;SDS011;3145;42.726;23.342;2023-06-14T01:43:39;8.57;;;6.00;;
6223;SDS011;3145;42.726;23.342;2023-06-14T01:46:07;8.97;;;6.50;;
6223;SDS011;3145;42.726;23.342;2023-06-14T01:48:35;5.70;;;5.20;;
6223;SDS011;3145;42.726;23.342;2023-06-14T01:51:02;6.43;;;5.93;;
6223;SDS011;3145;42.726;23.342;2023-06-14T01:53:29;6.57;;;5.93;;
6223;SDS011;3145;42.726;23.342;2023-06-14T01:55:56;7.33;;;5.53;;
6223;SDS011;3145;42.726;23.342;2023-06-14T01:58:24;6.43;;;5.73;;
6223;SDS011;3145;42.726;23.342;2023-06-14T02:00:51;6.63;;;6.03;;
6223;SDS011;3145;42.726;23.342;2023-06-14T02:03:20;6.40;;;5.90;;
6223;SDS011;3145;42.726;23.342;2023-06-14T02:05:48;5.50;;;5.10;;
6223;SDS011;3145;42.726;23.342;2023-06-14T02:08:15;7.37;;;5.27;;
6223;SDS011;3145;42.726;23.342;2023-06-14T02:10:41;6.00;;;5.57;;
6223;SDS011;3145;42.726;23.342;2023-06-14T02:13:08;8.17;;;6.23;;
6223;SDS011;3145;42.726;23.342;2023-06-14T02:15:36;7.07;;;5.37;;
6223;SDS011;3145;42.726;23.342;2023-06-14T02:18:03;7.13;;;6.13;;
6223;SDS011;3145;42.726;23.342;2023-06-14T02:20:30;8.20;;;6.20;;
6223;SDS011;3145;42.726;23.342;2023-06-14T02:22:57;6.43;;;5.80;;
6223;SDS011;3145;42.726;23.342;2023-06-14T02:25:24;7.37;;;6.67;;
6223;SDS011;3145;42.726;23.342;2023-06-14T02:27:52;6.60;;;6.03;;
6223;SDS011;3145;42.726;23.342;2023-06-14T02:30:19;7.07;;;5.90;;
6223;SDS011;3145;42.726;23.342;2023-06-14T02:32:48;9.30;;;5.90;;
6223;SDS011;3145;42.726;23.342;2023-06-14T02:35:16;7.97;;;6.57;;
6223;SDS011;3145;42.726;23.342;2023-06-14T02:37:42;6.27;;;5.87;;
6223;SDS011;3145;42.726;23.342;2023-06-14T02:40:09;6.10;;;5.60;;
6223;SDS011;3145;42.726;23.342;2023-06-14T02:42:36;10.97;;;5.93;;
6223;SDS011;3145;42.726;23.342;2023-06-14T02:45:03;7.17;;;6.57;;
6223;SDS011;3145;42.726;23.342;2023-06-14T02:47:31;6.97;;;6.23;;
6223;SDS011;3145;42.726;23.342;2023-06-14T02:49:59;7.30;;;6.70;;
6223;SDS011;3145;42.726;23.342;2023-06-14T02:52:26;6.33;;;5.73;;
6223;SDS011;3145;42.726;23.342;2023-06-14T02:54:52;7.17;;;6.53;;
6223;SDS011;3145;42.726;23.342;2023-06-14T02:57:19;10.27;;;6.63;;
6223;SDS011;3145;42.726;23.342;2023-06-14T02:59:46;6.70;;;6.10;;
6223;SDS011;3145;42.726;23.342;2023-06-14T03:02:12;6.60;;;6.03;;
6223;SDS011;3145;42.726;23.342;2023-06-14T03:04:39;8.03;;;6.53;;
6223;SDS011;3145;42.726;23.342;2023-06-14T03:07:10;8.30;;;6.10;;
6223;SDS011;3145;42.726;23.342;2023-06-14T03:09:37;7.73;;;6.97;;
6223;SDS011;3145;42.726;23.342;2023-06-14T03:12:05;7.27;;;6.40;;
6223;SDS011;3145;42.726;23.342;2023-06-14T03:14:34;6.90;;;6.20;;
6223;SDS011;3145;42.726;23.342;2023-06-14T03:17:01;6.20;;;5.60;;
6223;SDS011;3145;42.726;23.342;2023-06-14T03:19:29;7.27;;;5.97;;
6223;SDS011;3145;42.726;23.342;2023-06-14T03:21:56;6.37;;;5.70;;
6223;SDS011;3145;42.726;23.342;2023-06-14T03:24:24;6.90;;;6.20;;
6223;SDS011;3145;42.726;23.342;2023-06-14T03:26:52;9.70;;;6.57;;
6223;SDS011;3145;42.726;23.342;2023-06-14T03:29:19;7.67;;;6.77;;
6223;SDS011;3145;42.726;23.342;2023-06-14T03:31:56;7.50;;;6.63;;
6223;SDS011;3145;42.726;23.342;2023-06-14T03:34:24;6.90;;;5.87;;
6223;SDS011;3145;42.726;23.342;2023-06-14T03:36:50;7.90;;;6.13;;
6223;SDS011;3145;42.726;23.342;2023-06-14T03:39:17;8.93;;;6.40;;
6223;SDS011;3145;42.726;23.342;2023-06-14T03:41:45;7.23;;;6.60;;
6223;SDS011;3145;42.726;23.342;2023-06-14T03:44:13;7.20;;;6.50;;
6223;SDS011;3145;42.726;23.342;2023-06-14T03:46:41;6.53;;;6.03;;
6223;SDS011;3145;42.726;23.342;2023-06-14T03:49:08;9.53;;;7.30;;
6223;SDS011;3145;42.726;23.342;2023-06-14T03:51:35;7.50;;;6.67;;
6223;SDS011;3145;42.726;23.342;2023-06-14T03:54:02;7.40;;;5.93;;
6223;SDS011;3145;42.726;23.342;2023-06-14T03:56:29;9.10;;;6.07;;
6223;SDS011;3145;42.726;23.342;2023-06-14T03:58:57;7.20;;;6.50;;
6223;SDS011;3145;42.726;23.342;2023-06-14T04:01:24;6.70;;;6.20;;
6223;SDS011;3145;42.726;23.342;2023-06-14T04:03:55;7.00;;;6.33;;
6223;SDS011;3145;42.726;23.342;2023-06-14T04:06:23;9.63;;;7.33;;
6223;SDS011;3145;42.726;23.342;2023-06-14T04:08:57;7.70;;;6.60;;
6223;SDS011;3145;42.726;23.342;2023-06-14T04:11:28;7.43;;;6.83;;
6223;SDS011;3145;42.726;23.342;2023-06-14T04:13:55;7.77;;;6.93;;
6223;SDS011;3145;42.726;23.342;2023-06-14T04:16:23;8.20;;;7.23;;
6223;SDS011;3145;42.726;23.342;2023-06-14T04:18:50;9.37;;;7.20;;
6223;SDS011;3145;42.726;23.342;2023-06-14T04:21:17;7.57;;;6.37;;
6223;SDS011;3145;42.726;23.342;2023-06-14T04:23:44;7.83;;;7.10;;
6223;SDS011;3145;42.726;23.342;2023-06-14T04:26:10;8.40;;;7.73;;
6223;SDS011;3145;42.726;23.342;2023-06-14T04:28:38;7.80;;;7.20;;
6223;SDS011;3145;42.726;23.342;2023-06-14T04:31:05;8.17;;;7.23;;
6223;SDS011;3145;42.726;23.342;2023-06-14T04:33:34;7.90;;;7.10;;
6223;SDS011;3145;42.726;23.342;2023-06-14T04:36:09;8.90;;;7.37;;
6223;SDS011;3145;42.726;23.342;2023-06-14T04:38:36;9.87;;;7.40;;
6223;SDS011;3145;42.726;23.342;2023-06-14T04:41:03;11.50;;;8.40;;
6223;SDS011;3145;42.726;23.342;2023-06-14T04:43:30;12.30;;;9.53;;
6223;SDS011;3145;42.726;23.342;2023-06-14T04:46:03;10.97;;;8.83;;
6223;SDS011;3145;42.726;23.342;2023-06-14T04:48:30;12.90;;;8.50;;
6223;SDS011;3145;42.726;23.342;2023-06-14T04:50:59;12.03;;;9.57;;
6223;SDS011;3145;42.726;23.342;2023-06-14T04:53:25;11.00;;;9.60;;
6223;SDS011;3145;42.726;23.342;2023-06-14T04:55:54;15.77;;;8.80;;
6223;SDS011;3145;42.726;23.342;2023-06-14T04:58:21;9.83;;;8.93;;
6223;SDS011;3145;42.726;23.342;2023-06-14T05:00:47;14.20;;;9.60;;
6223;SDS011;3145;42.726;23.342;2023-06-14T05:03:14;15.97;;;10.80;;
6223;SDS011;3145;42.726;23.342;2023-06-14T05:05:41;19.43;;;10.40;;
6223;SDS011;3145;42.726;23.342;2023-06-14T05:08:09;15.33;;;10.33;;
6223;SDS011;3145;42.726;23.342;2023-06-14T05:10:35;15.23;;;10.47;;
6223;SDS011;3145;42.726;23.342;2023-06-14T05:13:02;12.63;;;9.10;;
6223;SDS011;3145;42.726;23.342;2023-06-14T05:15:29;13.37;;;9.50;;
6223;SDS011;3145;42.726;23.342;2023-06-14T05:17:56;10.80;;;9.10;;
6223;SDS011;3145;42.726;23.342;2023-06-14T05:20:23;11.37;;;9.73;;
6223;SDS011;3145;42.726;23.342;2023-06-14T05:22:51;9.43;;;8.53;;
6223;SDS011;3145;42.726;23.342;2023-06-14T05:25:20;14.07;;;10.93;;
6223;SDS011;3145;42.726;23.342;2023-06-14T05:27:46;11.20;;;10.13;;
6223;SDS011;3145;42.726;23.342;2023-06-14T05:30:13;14.17;;;11.67;;
6223;SDS011;3145;42.726;23.342;2023-06-14T05:32:41;15.03;;;12.60;;
6223;SDS011;3145;42.726;23.342;2023-06-14T05:35:08;18.53;;;13.27;;
6223;SDS011;3145;42.726;23.342;2023-06-14T05:37:35;15.97;;;12.47;;
6223;SDS011;3145;42.726;23.342;2023-06-14T05:40:02;17.27;;;15.43;;
6223;SDS011;3145;42.726;23.342;2023-06-14T05:42:32;17.27;;;14.93;;
6223;SDS011;3145;42.726;23.342;2023-06-14T05:44:59;18.30;;;13.53;;
6223;SDS011;3145;42.726;23.342;2023-06-14T05:47:26;24.47;;;14.70;;
6223;SDS011;3145;42.726;23.342;2023-06-14T05:49:53;16.43;;;13.93;;
6223;SDS011;3145;42.726;23.342;2023-06-14T05:52:20;16.80;;;12.23;;
6223;SDS011;3145;42.726;23.342;2023-06-14T05:54:47;15.57;;;13.47;;
6223;SDS011;3145;42.726;23.342;2023-06-14T05:57:14;16.00;;;12.43;;
6223;SDS011;3145;42.726;23.342;2023-06-14T05:59:42;18.87;;;13.70;;
6223;SDS011;3145;42.726;23.342;2023-06-14T06:02:09;19.20;;;14.33;;
6223;SDS011;3145;42.726;23.342;2023-06-14T06:04:35;15.13;;;13.47;;
6223;SDS011;3145;42.726;23.342;2023-06-14T06:07:02;16.47;;;13.33;;
6223;SDS011;3145;42.726;23.342;2023-06-14T06:09:30;17.60;;;15.47;;
6223;SDS011;3145;42.726;23.342;2023-06-14T06:11:57;19.33;;;15.07;;
6223;SDS011;3145;42.726;23.342;2023-06-14T06:14:24;15.60;;;13.13;;
6223;SDS011;3145;42.726;23.342;2023-06-14T06:16:52;16.93;;;12.97;;
6223;SDS011;3145;42.726;23.342;2023-06-14T06:19:19;20.70;;;14.37;;
6223;SDS011;3145;42.726;23.342;2023-06-14T06:21:46;18.50;;;13.43;;
6223;SDS011;3145;42.726;23.342;2023-06-14T06:24:13;15.90;;;12.90;;
6223;SDS011;3145;42.726;23.342;2023-06-14T06:26:40;14.40;;;10.40;;
6223;SDS011;3145;42.726;23.342;2023-06-14T06:29:06;12.87;;;10.30;;
6223;SDS011;3145;42.726;23.342;2023-06-14T06:31:33;11.00;;;9.90;;
6223;SDS011;3145;42.726;23.342;2023-06-14T06:34:02;13.37;;;9.93;;
6223;SDS011;3145;42.726;23.342;2023-06-14T06:36:29;10.50;;;9.30;;
6223;SDS011;3145;42.726;23.342;2023-06-14T06:38:55;15.27;;;10.47;;
6223;SDS011;3145;42.726;23.342;2023-06-14T06:41:22;12.97;;;9.43;;
6223;SDS011;3145;42.726;23.342;2023-06-14T06:43:49;12.97;;;10.67;;
6223;SDS011;3145;42.726;23.342;2023-06-14T06:46:15;14.33;;;11.03;;
6223;SDS011;3145;42.726;23.342;2023-06-14T06:48:43;12.13;;;10.77;;
6223;SDS011;3145;42.726;23.342;2023-06-14T06:51:11;13.10;;;11.70;;
6223;SDS011;3145;42.726;23.342;2023-06-14T06:53:38;12.17;;;10.90;;
6223;SDS011;3145;42.726;23.342;2023-06-14T06:56:05;15.57;;;12.27;;
6223;SDS011;3145;42.726;23.342;2023-06-14T06:58:32;12.90;;;10.90;;
6223;SDS011;3145;42.726;23.342;2023-06-14T07:00:59;14.67;;;11.23;;
6223;SDS011;3145;42.726;23.342;2023-06-14T07:03:25;16.57;;;12.80;;
6223;SDS011;3145;42.726;23.342;2023-06-14T07:05:52;15.13;;;13.23;;
6223;SDS011;3145;42.726;23.342;2023-06-14T07:08:20;15.97;;;12.30;;
6223;SDS011;3145;42.726;23.342;2023-06-14T07:10:46;14.73;;;13.17;;
6223;SDS011;3145;42.726;23.342;2023-06-14T07:13:13;14.20;;;12.70;;
6223;SDS011;3145;42.726;23.342;2023-06-14T07:15:40;14.83;;;12.73;;
6223;SDS011;3145;42.726;23.342;2023-06-14T07:18:07;19.43;;;13.43;;
6223;SDS011;3145;42.726;23.342;2023-06-14T07:20:33;15.53;;;13.73;;
6223;SDS011;3145;42.726;23.342;2023-06-14T07:23:03;19.87;;;13.60;;
6223;SDS011;3145;42.726;23.342;2023-06-14T07:25:31;14.65;;;13.02;;
6223;SDS011;3145;42.726;23.342;2023-06-14T07:27:58;14.90;;;12.27;;
6223;SDS011;3145;42.726;23.342;2023-06-14T07:30:25;14.88;;;13.38;;
6223;SDS011;3145;42.726;23.342;2023-06-14T07:32:52;18.70;;;13.18;;
6223;SDS011;3145;42.726;23.342;2023-06-14T07:35:19;17.92;;;13.02;;
6223;SDS011;3145;42.726;23.342;2023-06-14T07:37:46;13.82;;;12.00;;
6223;SDS011;3145;42.726;23.342;2023-06-14T07:40:13;17.45;;;14.27;;
6223;SDS011;3145;42.726;23.342;2023-06-14T07:42:41;12.50;;;11.07;;
6223;SDS011;3145;42.726;23.342;2023-06-14T07:45:08;13.05;;;11.77;;
6223;SDS011;3145;42.726;23.342;2023-06-14T07:47:35;15.93;;;12.73;;
6223;SDS011;3145;42.726;23.342;2023-06-14T07:50:02;12.05;;;10.85;;
6223;SDS011;3145;42.726;23.342;2023-06-14T07:52:29;12.52;;;10.45;;
6223;SDS011;3145;42.726;23.342;2023-06-14T07:54:56;11.85;;;10.75;;
6223;SDS011;3145;42.726;23.342;2023-06-14T07:57:23;12.80;;;11.52;;
6223;SDS011;3145;42.726;23.342;2023-06-14T07:59:51;18.95;;;16.08;;
6223;SDS011;3145;42.726;23.342;2023-06-14T08:02:18;18.23;;;14.60;;
6223;SDS011;3145;42.726;23.342;2023-06-14T08:04:44;18.70;;;14.40;;
6223;SDS011;3145;42.726;23.342;2023-06-14T08:07:11;16.08;;;14.07;;
6223;SDS011;3145;42.726;23.342;2023-06-14T08:09:38;15.48;;;12.80;;
6223;SDS011;3145;42.726;23.342;2023-06-14T08:12:05;13.73;;;12.32;;
6223;SDS011;3145;42.726;23.342;2023-06-14T08:14:34;14.23;;;11.43;;
6223;SDS011;3145;42.726;23.342;2023-06-14T08:17:03;24.90;;;12.65;;
6223;SDS011;3145;42.726;23.342;2023-06-14T08:19:30;20.02;;;13.82;;
6223;SDS011;3145;42.726;23.342;2023-06-14T08:21:57;14.93;;;11.90;;
6223;SDS011;3145;42.726;23.342;2023-06-14T08:24:23;14.38;;;12.02;;
6223;SDS011;3145;42.726;23.342;2023-06-14T08:26:52;11.45;;;10.20;;
6223;SDS011;3145;42.726;23.342;2023-06-14T08:29:18;12.45;;;10.50;;
6223;SDS011;3145;42.726;23.342;2023-06-14T08:31:46;14.10;;;12.07;;
6223;SDS011;3145;42.726;23.342;2023-06-14T08:34:14;20.05;;;12.32;;
6223;SDS011;3145;42.726;23.342;2023-06-14T08:36:41;13.60;;;11.63;;
6223;SDS011;3145;42.726;23.342;2023-06-14T08:39:08;12.43;;;11.30;;
6223;SDS011;3145;42.726;23.342;2023-06-14T08:41:35;12.10;;;10.82;;
6223;SDS011;3145;42.726;23.342;2023-06-14T08:44:02;16.42;;;12.23;;
6223;SDS011;3145;42.726;23.342;2023-06-14T08:46:30;14.13;;;11.63;;
6223;SDS011;3145;42.726;23.342;2023-06-14T08:48:59;12.82;;;10.13;;
6223;SDS011;3145;42.726;23.342;2023-06-14T08:51:28;11.70;;;10.50;;
6223;SDS011;3145;42.726;23.342;2023-06-14T08:53:59;12.50;;;10.15;;
6223;SDS011;3145;42.726;23.342;2023-06-14T08:56:27;13.63;;;10.70;;
6223;SDS011;3145;42.726;23.342;2023-06-14T08:58:54;12.63;;;10.30;;
6223;SDS011;3145;42.726;23.342;2023-06-14T09:01:22;13.07;;;10.35;;
6223;SDS011;3145;42.726;23.342;2023-06-14T09:03:49;14.82;;;11.32;;
6223;SDS011;3145;42.726;23.342;2023-06-14T09:06:16;13.40;;;12.10;;
6223;SDS011;3145;42.726;23.342;2023-06-14T09:08:46;11.75;;;10.65;;
6223;SDS011;3145;42.726;23.342;2023-06-14T09:11:13;13.68;;;11.35;;
6223;SDS011;3145;42.726;23.342;2023-06-14T09:13:41;14.68;;;11.02;;
6223;SDS011;3145;42.726;23.342;2023-06-14T09:16:08;13.77;;;10.93;;
6223;SDS011;3145;42.726;23.342;2023-06-14T09:18:35;13.23;;;11.93;;
6223;SDS011;3145;42.726;23.342;2023-06-14T09:21:03;13.95;;;11.68;;
6223;SDS011;3145;42.726;23.342;2023-06-14T09:23:33;20.92;;;12.73;;
6223;SDS011;3145;42.726;23.342;2023-06-14T09:26:07;14.40;;;12.40;;
6223;SDS011;3145;42.726;23.342;2023-06-14T09:28:35;13.68;;;11.85;;
6223;SDS011;3145;42.726;23.342;2023-06-14T09:31:01;15.70;;;11.85;;
6223;SDS011;3145;42.726;23.342;2023-06-14T09:33:28;11.75;;;10.55;;
6223;SDS011;3145;42.726;23.342;2023-06-14T09:35:56;12.65;;;11.40;;
6223;SDS011;3145;42.726;23.342;2023-06-14T09:38:24;13.65;;;12.18;;
6223;SDS011;3145;42.726;23.342;2023-06-14T09:40:51;12.95;;;11.70;;
6223;SDS011;3145;42.726;23.342;2023-06-14T09:43:19;14.75;;;11.60;;
6223;SDS011;3145;42.726;23.342;2023-06-14T09:45:47;14.65;;;11.05;;
6223;SDS011;3145;42.726;23.342;2023-06-14T09:48:14;16.63;;;11.38;;
6223;SDS011;3145;42.726;23.342;2023-06-14T09:50:44;12.73;;;11.23;;
6223;SDS011;3145;42.726;23.342;2023-06-14T09:53:12;11.85;;;10.65;;
6223;SDS011;3145;42.726;23.342;2023-06-14T09:55:41;11.60;;;10.38;;
6223;SDS011;3145;42.726;23.342;2023-06-14T09:58:08;12.13;;;10.88;;
6223;SDS011;3145;42.726;23.342;2023-06-14T10:00:39;12.27;;;10.98;;
6223;SDS011;3145;42.726;23.342;2023-06-14T10:03:10;12.77;;;10.55;;
6223;SDS011;3145;42.726;23.342;2023-06-14T10:05:39;11.85;;;10.60;;
6223;SDS011;3145;42.726;23.342;2023-06-14T10:08:10;18.20;;;10.73;;
6223;SDS011;3145;42.726;23.342;2023-06-14T10:10:42;13.00;;;10.88;;
6223;SDS011;3145;42.726;23.342;2023-06-14T10:13:09;11.75;;;10.55;;
6223;SDS011;3145;42.726;23.342;2023-06-14T10:15:41;11.88;;;10.65;;
6223;SDS011;3145;42.726;23.342;2023-06-14T10:18:14;13.70;;;11.10;;
6223;SDS011;3145;42.726;23.342;2023-06-14T10:20:51;11.38;;;10.27;;
6223;SDS011;3145;42.726;23.342;2023-06-14T10:23:22;12.32;;;10.48;;
6223;SDS011;3145;42.726;23.342;2023-06-14T10:25:51;14.20;;;12.20;;
6223;SDS011;3145;42.726;23.342;2023-06-14T10:28:22;12.05;;;10.85;;
6223;SDS011;3145;42.726;23.342;2023-06-14T10:31:02;14.73;;;11.07;;
6223;SDS011;3145;42.726;23.342;2023-06-14T10:33:30;13.88;;;10.77;;
6223;SDS011;3145;42.726;23.342;2023-06-14T10:39:04;10.90;;;9.90;;
6223;SDS011;3145;42.726;23.342;2023-06-14T10:41:34;13.07;;;11.68;;
6223;SDS011;3145;42.726;23.342;2023-06-14T10:46:59;11.52;;;10.50;;
6223;SDS011;3145;42.726;23.342;2023-06-14T10:49:39;13.55;;;10.48;;
6223;SDS011;3145;42.726;23.342;2023-06-14T10:52:08;12.57;;;11.27;;
6223;SDS011;3145;42.726;23.342;2023-06-14T10:55:02;11.38;;;10.38;;
6223;SDS011;3145;42.726;23.342;2023-06-14T10:57:31;11.45;;;10.35;;
6223;SDS011;3145;42.726;23.342;2023-06-14T10:59:58;13.77;;;11.50;;
6223;SDS011;3145;42.726;23.342;2023-06-14T11:05:41;10.85;;;9.85;;
6223;SDS011;3145;42.726;23.342;2023-06-14T11:08:18;10.48;;;9.43;;
6223;SDS011;3145;42.726;23.342;2023-06-14T11:11:00;9.73;;;8.65;;
6223;SDS011;3145;42.726;23.342;2023-06-14T11:13:32;9.70;;;8.82;;
6223;SDS011;3145;42.726;23.342;2023-06-14T11:15:59;9.48;;;8.55;;
6223;SDS011;3145;42.726;23.342;2023-06-14T11:18:27;8.07;;;7.47;;
6223;SDS011;3145;42.726;23.342;2023-06-14T11:20:54;9.40;;;8.50;;
6223;SDS011;3145;42.726;23.342;2023-06-14T11:23:21;11.00;;;9.98;;
6223;SDS011;3145;42.726;23.342;2023-06-14T11:25:52;11.32;;;9.40;;
6223;SDS011;3145;42.726;23.342;2023-06-14T11:28:19;10.23;;;9.32;;
6223;SDS011;3145;42.726;23.342;2023-06-14T11:30:47;9.48;;;8.63;;
6223;SDS011;3145;42.726;23.342;2023-06-14T11:33:16;7.97;;;7.28;;
6223;SDS011;3145;42.726;23.342;2023-06-14T11:35:46;8.25;;;7.65;;
6223;SDS011;3145;42.726;23.342;2023-06-14T11:38:13;8.85;;;8.02;;
6223;SDS011;3145;42.726;23.342;2023-06-14T11:40:40;7.95;;;7.35;;
6223;SDS011;3145;42.726;23.342;2023-06-14T11:43:06;8.13;;;7.43;;
6223;SDS011;3145;42.726;23.342;2023-06-14T11:45:33;7.88;;;7.18;;
6223;SDS011;3145;42.726;23.342;2023-06-14T11:48:00;8.73;;;8.02;;
6223;SDS011;3145;42.726;23.342;2023-06-14T11:50:27;9.35;;;7.80;;
6223;SDS011;3145;42.726;23.342;2023-06-14T11:52:56;8.93;;;7.65;;
6223;SDS011;3145;42.726;23.342;2023-06-14T11:55:25;6.93;;;6.43;;
6223;SDS011;3145;42.726;23.342;2023-06-14T11:57:53;8.20;;;7.50;;
6223;SDS011;3145;42.726;23.342;2023-06-14T12:00:22;10.43;;;7.35;;
6223;SDS011;3145;42.726;23.342;2023-06-14T12:02:54;8.13;;;7.32;;
6223;SDS011;3145;42.726;23.342;2023-06-14T12:05:22;8.57;;;7.72;;
6223;SDS011;3145;42.726;23.342;2023-06-14T12:07:49;8.38;;;7.57;;
6223;SDS011;3145;42.726;23.342;2023-06-14T12:10:19;8.13;;;7.15;;
6223;SDS011;3145;42.726;23.342;2023-06-14T12:12:47;7.35;;;6.78;;
6223;SDS011;3145;42.726;23.342;2023-06-14T12:15:13;15.48;;;7.07;;
6223;SDS011;3145;42.726;23.342;2023-06-14T12:17:42;9.68;;;7.07;;
6223;SDS011;3145;42.726;23.342;2023-06-14T12:20:09;7.65;;;7.05;;
6223;SDS011;3145;42.726;23.342;2023-06-14T12:22:39;7.47;;;6.88;;
6223;SDS011;3145;42.726;23.342;2023-06-14T12:25:06;6.88;;;6.35;;
6223;SDS011;3145;42.726;23.342;2023-06-14T12:27:39;8.38;;;6.93;;
6223;SDS011;3145;42.726;23.342;2023-06-14T12:30:06;7.28;;;6.68;;
6223;SDS011;3145;42.726;23.342;2023-06-14T12:32:34;6.85;;;6.30;;
6223;SDS011;3145;42.726;23.342;2023-06-14T12:35:01;7.28;;;6.57;;
6223;SDS011;3145;42.726;23.342;2023-06-14T12:37:28;8.55;;;6.65;;
6223;SDS011;3145;42.726;23.342;2023-06-14T12:39:54;7.53;;;6.90;;
6223;SDS011;3145;42.726;23.342;2023-06-14T12:42:21;6.63;;;5.93;;
6223;SDS011;3145;42.726;23.342;2023-06-14T12:44:49;6.85;;;6.20;;
6223;SDS011;3145;42.726;23.342;2023-06-14T12:47:16;7.32;;;5.78;;
6223;SDS011;3145;42.726;23.342;2023-06-14T12:49:42;6.97;;;6.35;;
6223;SDS011;3145;42.726;23.342;2023-06-14T12:52:09;7.35;;;6.00;;
6223;SDS011;3145;42.726;23.342;2023-06-14T12:54:36;5.57;;;5.18;;
6223;SDS011;3145;42.726;23.342;2023-06-14T12:57:04;6.35;;;5.75;;
6223;SDS011;3145;42.726;23.342;2023-06-14T12:59:31;5.40;;;4.88;;
6223;SDS011;3145;42.726;23.342;2023-06-14T13:02:01;5.55;;;5.15;;
6223;SDS011;3145;42.726;23.342;2023-06-14T13:04:37;6.35;;;5.85;;
6223;SDS011;3145;42.726;23.342;2023-06-14T13:07:04;6.65;;;6.03;;
6223;SDS011;3145;42.726;23.342;2023-06-14T13:09:31;6.13;;;5.63;;
6223;SDS011;3145;42.726;23.342;2023-06-14T13:11:58;6.65;;;5.45;;
6223;SDS011;3145;42.726;23.342;2023-06-14T13:14:24;5.63;;;5.05;;
6223;SDS011;3145;42.726;23.342;2023-06-14T13:16:51;8.27;;;4.65;;
6223;SDS011;3145;42.726;23.342;2023-06-14T13:19:19;7.45;;;5.22;;
6223;SDS011;3145;42.726;23.342;2023-06-14T13:21:47;6.10;;;5.15;;
6223;SDS011;3145;42.726;23.342;2023-06-14T13:24:15;6.47;;;4.93;;
6223;SDS011;3145;42.726;23.342;2023-06-14T13:26:41;5.03;;;4.57;;
6223;SDS011;3145;42.726;23.342;2023-06-14T13:29:08;4.95;;;4.55;;
6223;SDS011;3145;42.726;23.342;2023-06-14T13:31:35;6.97;;;6.28;;
6223;SDS011;3145;42.726;23.342;2023-06-14T13:34:02;10.75;;;5.80;;
6223;SDS011;3145;42.726;23.342;2023-06-14T13:36:31;9.85;;;6.82;;
6223;SDS011;3145;42.726;23.342;2023-06-14T13:38:57;8.23;;;6.53;;
6223;SDS011;3145;42.726;23.342;2023-06-14T13:41:25;9.05;;;6.63;;
6223;SDS011;3145;42.726;23.342;2023-06-14T13:43:56;8.60;;;6.55;;
6223;SDS011;3145;42.726;23.342;2023-06-14T13:46:23;9.55;;;6.13;;
6223;SDS011;3145;42.726;23.342;2023-06-14T13:48:50;7.43;;;6.45;;
6223;SDS011;3145;42.726;23.342;2023-06-14T13:51:17;7.60;;;6.55;;
6223;SDS011;3145;42.726;23.342;2023-06-14T13:53:47;6.65;;;6.03;;
6223;SDS011;3145;42.726;23.342;2023-06-14T13:56:14;6.97;;;6.35;;
6223;SDS011;3145;42.726;23.342;2023-06-14T13:58:41;7.78;;;7.28;;
6223;SDS011;3145;42.726;23.342;2023-06-14T14:01:07;11.23;;;7.60;;
6223;SDS011;3145;42.726;23.342;2023-06-14T14:03:35;8.38;;;7.28;;
6223;SDS011;3145;42.726;23.342;2023-06-14T14:06:02;8.18;;;6.82;;
6223;SDS011;3145;42.726;23.342;2023-06-14T14:08:29;6.95;;;5.60;;
6223;SDS011;3145;42.726;23.342;2023-06-14T14:10:58;6.77;;;6.20;;
6223;SDS011;3145;42.726;23.342;2023-06-14T14:13:24;7.15;;;6.65;;
6223;SDS011;3145;42.726;23.342;2023-06-14T14:15:51;8.47;;;7.27;;
6223;SDS011;3145;42.726;23.342;2023-06-14T14:18:18;8.00;;;7.30;;
6223;SDS011;3145;42.726;23.342;2023-06-14T14:20:46;7.93;;;7.18;;
6223;SDS011;3145;42.726;23.342;2023-06-14T14:23:12;6.97;;;6.30;;
6223;SDS011;3145;42.726;23.342;2023-06-14T14:25:39;8.38;;;7.40;;
6223;SDS011;3145;42.726;23.342;2023-06-14T14:28:07;10.27;;;7.83;;
6223;SDS011;3145;42.726;23.342;2023-06-14T14:30:34;9.97;;;8.83;;
6223;SDS011;3145;42.726;23.342;2023-06-14T14:33:04;10.87;;;8.47;;
6223;SDS011;3145;42.726;23.342;2023-06-14T14:35:31;13.17;;;8.17;;
6223;SDS011;3145;42.726;23.342;2023-06-14T14:37:58;9.33;;;8.40;;
6223;SDS011;3145;42.726;23.342;2023-06-14T14:40:25;8.67;;;7.80;;
6223;SDS011;3145;42.726;23.342;2023-06-14T14:42:52;9.57;;;7.50;;
6223;SDS011;3145;42.726;23.342;2023-06-14T14:45:20;8.03;;;7.30;;
6223;SDS011;3145;42.726;23.342;2023-06-14T14:47:47;5.80;;;5.30;;
6223;SDS011;3145;42.726;23.342;2023-06-14T14:50:14;6.17;;;5.23;;
6223;SDS011;3145;42.726;23.342;2023-06-14T14:52:41;4.53;;;4.17;;
6223;SDS011;3145;42.726;23.342;2023-06-14T14:55:08;3.97;;;3.20;;
6223;SDS011;3145;42.726;23.342;2023-06-14T14:57:35;4.60;;;3.60;;
6223;SDS011;3145;42.726;23.342;2023-06-14T15:00:02;4.00;;;3.70;;
6223;SDS011;3145;42.726;23.342;2023-06-14T15:02:31;4.73;;;4.27;;
6223;SDS011;3145;42.726;23.342;2023-06-14T15:04:58;5.83;;;4.63;;